Time;durP1;ratioP1;P1;durP2;ratioP2;P2;SDS_P1;SDS_P2;PMS_P1;PMS_P2;Temp;Humidity;BMP_temperature;BMP_pressure;BME280_temperature;BME280_humidity;BME280_pressure;Samples;Min_cycle;Max_cycle;Signal;HPM_P1;HPM_P2
2021/03/31 00:02:17;;;;;;;9.23;7.00;;;15.70;94.30;;;;;;4970304;28;20204;-70
2021/03/31 00:04:43;;;;;;;8.65;6.70;;;15.70;94.40;;;;;;4986696;28;20219;-69
2021/03/31 00:07:11;;;;;;;7.90;6.40;;;15.70;94.40;;;;;;4978219;28;20194;-69
2021/03/31 00:09:37;;;;;;;8.75;6.68;;;15.60;94.50;;;;;;4979548;28;20197;-71
2021/03/31 00:12:04;;;;;;;10.05;6.60;;;15.60;94.50;;;;;;4988083;28;20224;-69
2021/03/31 00:14:30;;;;;;;7.15;6.43;;;15.60;94.60;;;;;;4968421;28;20216;-69
2021/03/31 00:16:57;;;;;;;8.60;7.70;;;15.60;94.60;;;;;;4972191;28;20688;-70
2021/03/31 00:19:24;;;;;;;7.53;5.82;;;15.60;94.70;;;;;;4978665;28;20208;-70
2021/03/31 00:21:50;;;;;;;14.23;7.03;;;15.60;94.70;;;;;;4967994;28;20634;-70
2021/03/31 00:24:16;;;;;;;9.07;7.00;;;15.50;94.70;;;;;;4968419;28;20309;-69
2021/03/31 00:26:42;;;;;;;8.75;7.10;;;15.50;94.80;;;;;;4970305;28;20641;-69
2021/03/31 00:29:08;;;;;;;7.60;6.10;;;15.50;94.90;;;;;;4972158;28;20210;-69
2021/03/31 00:31:34;;;;;;;7.47;6.65;;;15.40;94.90;;;;;;4972570;28;20665;-70
2021/03/31 00:34:01;;;;;;;8.18;6.95;;;15.40;94.90;;;;;;4987206;28;20224;-70
2021/03/31 00:36:28;;;;;;;8.57;6.72;;;15.40;95.00;;;;;;4971107;28;20194;-70
2021/03/31 00:38:54;;;;;;;8.13;6.80;;;15.40;95.00;;;;;;4968145;28;20220;-70
2021/03/31 00:41:20;;;;;;;9.90;7.53;;;15.40;95.10;;;;;;4979629;28;20206;-70
2021/03/31 00:43:46;;;;;;;8.32;6.95;;;15.40;95.10;;;;;;4968224;28;20323;-70
2021/03/31 00:46:13;;;;;;;10.05;7.35;;;15.40;95.20;;;;;;4979706;28;20204;-70
2021/03/31 00:48:39;;;;;;;10.85;7.10;;;15.30;95.10;;;;;;4972919;28;20201;-70
2021/03/31 00:51:05;;;;;;;10.40;6.47;;;15.40;95.30;;;;;;4974550;28;20278;-70
2021/03/31 00:53:36;;;;;;;8.23;6.97;;;15.30;95.20;;;;;;4971370;28;20312;-70
2021/03/31 00:56:03;;;;;;;9.43;6.53;;;15.30;95.30;;;;;;4985976;28;20212;-70
2021/03/31 00:58:29;;;;;;;8.30;6.70;;;15.30;95.30;;;;;;4980320;28;20204;-70
2021/03/31 01:00:55;;;;;;;8.70;6.75;;;15.30;95.40;;;;;;4988620;28;20207;-70
2021/03/31 01:03:21;;;;;;;7.82;6.43;;;15.30;95.40;;;;;;4976580;28;20198;-70
2021/03/31 01:05:48;;;;;;;8.88;6.63;;;15.20;95.40;;;;;;4984230;28;20522;-70
2021/03/31 01:08:14;;;;;;;9.02;6.13;;;15.20;95.50;;;;;;4983643;28;20658;-69
2021/03/31 01:10:44;;;;;;;7.72;6.10;;;15.20;95.50;;;;;;4988308;28;20197;-70
2021/03/31 01:13:37;;;;;;;8.77;6.70;;;15.10;95.50;;;;;;4974935;28;20553;-70
2021/03/31 01:16:12;;;;;;;8.70;6.82;;;15.10;95.60;;;;;;4974564;28;20208;-70
2021/03/31 01:18:45;;;;;;;11.20;7.05;;;15.10;95.60;;;;;;4987841;28;20707;-69
2021/03/31 01:21:52;;;;;;;7.38;6.25;;;15.10;95.60;;;;;;4973135;28;20205;-69
2021/03/31 01:24:58;;;;;;;8.50;5.70;;;15.10;95.80;;;;;;4984164;28;20235;-69
2021/03/31 01:27:36;;;;;;;6.82;5.75;;;15.00;95.70;;;;;;4975413;28;20202;-69
2021/03/31 01:30:10;;;;;;;10.07;7.72;;;15.00;95.70;;;;;;4986406;28;20202;-69
2021/03/31 01:32:58;;;;;;;10.35;6.68;;;15.00;95.70;;;;;;4979769;28;20215;-69
2021/03/31 01:35:26;;;;;;;7.15;6.28;;;15.00;95.80;;;;;;4990184;28;20250;-69
2021/03/31 01:37:55;;;;;;;9.52;6.68;;;15.00;95.70;;;;;;4978764;28;20193;-69
2021/03/31 01:40:24;;;;;;;7.60;5.55;;;15.00;95.80;;;;;;4978272;28;20205;-69
2021/03/31 01:42:56;;;;;;;8.05;5.45;;;14.90;95.80;;;;;;4977405;28;20208;-68
2021/03/31 01:45:28;;;;;;;9.10;6.47;;;14.90;95.80;;;;;;4987600;28;20205;-69
2021/03/31 01:47:55;;;;;;;13.30;6.80;;;14.90;95.80;;;;;;4978606;28;20202;-69
2021/03/31 01:50:24;;;;;;;8.90;6.93;;;14.90;95.90;;;;;;4984589;28;20217;-69
2021/03/31 01:52:51;;;;;;;9.57;5.95;;;14.90;95.90;;;;;;4971381;28;20684;-69
2021/03/31 01:55:18;;;;;;;7.13;6.00;;;14.90;95.90;;;;;;4981300;28;20209;-69
2021/03/31 01:57:45;;;;;;;9.40;6.50;;;14.80;95.90;;;;;;4983779;28;20208;-70
2021/03/31 02:00:15;;;;;;;7.80;5.82;;;14.80;95.90;;;;;;4984790;28;20779;-70
2021/03/31 02:02:43;;;;;;;7.65;5.50;;;14.80;96.00;;;;;;4972416;28;20553;-71
2021/03/31 02:05:10;;;;;;;7.70;5.75;;;14.80;96.00;;;;;;4986552;28;20200;-70
2021/03/31 02:07:38;;;;;;;8.70;6.00;;;14.80;96.00;;;;;;4981506;28;20205;-70
2021/03/31 02:10:08;;;;;;;7.50;5.93;;;14.80;96.10;;;;;;4978731;28;20204;-70
2021/03/31 02:12:35;;;;;;;9.25;6.75;;;14.70;96.40;;;;;;4970206;28;20263;-70
2021/03/31 02:15:02;;;;;;;8.45;5.53;;;14.70;96.10;;;;;;4972406;28;20225;-70
2021/03/31 02:17:29;;;;;;;8.85;6.85;;;14.70;96.10;;;;;;4982258;28;20189;-70
2021/03/31 02:19:56;;;;;;;7.00;5.65;;;14.70;96.20;;;;;;4975309;28;20738;-71
2021/03/31 02:22:24;;;;;;;9.73;6.57;;;14.70;96.20;;;;;;4978637;28;20239;-70
2021/03/31 02:24:51;;;;;;;8.52;6.88;;;14.70;96.20;;;;;;4988175;28;20232;-70
2021/03/31 02:27:19;;;;;;;8.82;5.82;;;14.60;96.30;;;;;;4977712;28;20201;-70
2021/03/31 02:29:47;;;;;;;6.47;5.57;;;14.60;96.30;;;;;;4981784;28;20258;-71
2021/03/31 02:32:16;;;;;;;7.30;5.72;;;14.60;96.40;;;;;;4970743;28;20600;-70
2021/03/31 02:34:43;;;;;;;6.97;5.50;;;14.60;96.40;;;;;;4978111;28;20208;-70
2021/03/31 02:37:10;;;;;;;6.68;5.38;;;14.50;96.40;;;;;;4985178;28;20198;-70
2021/03/31 02:39:38;;;;;;;6.70;4.60;;;14.50;96.40;;;;;;4970603;28;20224;-70
2021/03/31 02:42:08;;;;;;;9.35;6.82;;;14.50;96.50;;;;;;4973607;28;20217;-70
2021/03/31 02:44:39;;;;;;;8.70;6.13;;;14.50;96.50;;;;;;4970685;28;20197;-70
2021/03/31 02:47:07;;;;;;;7.15;5.90;;;14.50;96.50;;;;;;4983517;28;20655;-69
2021/03/31 02:49:34;;;;;;;8.60;6.10;;;14.50;96.60;;;;;;4978533;28;20679;-69
2021/03/31 02:52:02;;;;;;;8.75;5.65;;;14.40;96.50;;;;;;4972293;28;20518;-69
2021/03/31 02:54:29;;;;;;;7.50;5.28;;;14.40;96.50;;;;;;4970639;28;20541;-69
2021/03/31 02:56:56;;;;;;;8.38;5.95;;;14.40;96.60;;;;;;4974738;28;20698;-69
2021/03/31 02:59:23;;;;;;;9.40;6.20;;;14.40;96.60;;;;;;4979895;28;20190;-69
2021/03/31 03:01:50;;;;;;;8.90;6.40;;;14.40;96.70;;;;;;4972168;28;20212;-69
2021/03/31 03:04:16;;;;;;;6.85;5.95;;;14.40;96.70;;;;;;4984338;28;20653;-69
2021/03/31 03:06:43;;;;;;;6.88;5.93;;;14.30;96.70;;;;;;4978887;28;20202;-69
2021/03/31 03:09:09;;;;;;;6.97;5.35;;;14.30;96.70;;;;;;4971855;28;20217;-69
2021/03/31 03:11:36;;;;;;;9.48;6.47;;;14.30;96.80;;;;;;4987886;28;20629;-69
2021/03/31 03:14:06;;;;;;;8.00;5.53;;;14.30;96.80;;;;;;4982012;28;20229;-69
2021/03/31 03:16:32;;;;;;;10.18;5.88;;;14.30;96.90;;;;;;4986922;28;20208;-69
2021/03/31 03:18:59;;;;;;;8.82;4.88;;;14.20;96.80;;;;;;4972288;28;20243;-69
2021/03/31 03:21:27;;;;;;;6.30;5.45;;;14.20;96.80;;;;;;4978936;28;20707;-69
2021/03/31 03:23:54;;;;;;;7.72;5.65;;;14.20;96.90;;;;;;4969056;28;20693;-69
2021/03/31 03:26:21;;;;;;;6.10;5.00;;;14.20;97.00;;;;;;4969490;28;20201;-69
2021/03/31 03:28:48;;;;;;;9.93;5.95;;;14.10;97.00;;;;;;4983795;28;20478;-69
2021/03/31 03:31:15;;;;;;;11.65;6.38;;;14.10;97.00;;;;;;4987454;28;20197;-69
2021/03/31 03:33:42;;;;;;;8.68;4.53;;;14.10;97.00;;;;;;4978717;28;20280;-69
2021/03/31 03:36:12;;;;;;;7.25;5.18;;;14.10;97.10;;;;;;4969024;28;20251;-69
2021/03/31 03:38:39;;;;;;;7.50;6.38;;;14.10;97.20;;;;;;4982626;28;20200;-69
2021/03/31 03:41:06;;;;;;;7.40;5.50;;;14.10;97.20;;;;;;4987476;28;20676;-69
2021/03/31 03:43:32;;;;;;;6.93;4.78;;;14.00;97.50;;;;;;4979267;28;20193;-69
2021/03/31 03:45:59;;;;;;;9.52;6.28;;;14.00;97.20;;;;;;4988379;28;20262;-68
2021/03/31 03:48:26;;;;;;;6.90;5.00;;;14.00;97.20;;;;;;4984056;28;20216;-68
2021/03/31 03:50:52;;;;;;;7.70;5.80;;;14.00;97.30;;;;;;4970149;28;20251;-68
2021/03/31 03:53:20;;;;;;;7.45;4.65;;;14.00;97.30;;;;;;4979011;28;20210;-69
2021/03/31 03:55:46;;;;;;;6.75;5.85;;;14.00;97.30;;;;;;4986365;28;20197;-68
2021/03/31 03:58:13;;;;;;;7.70;6.13;;;14.00;97.30;;;;;;4977940;28;20754;-69
2021/03/31 04:00:39;;;;;;;8.73;6.20;;;13.90;97.30;;;;;;4969770;28;20206;-69
2021/03/31 04:03:06;;;;;;;9.77;7.47;;;13.90;97.40;;;;;;4971448;28;20197;-68
2021/03/31 04:05:32;;;;;;;6.82;5.35;;;13.90;97.40;;;;;;4968701;28;20201;-69
2021/03/31 04:07:58;;;;;;;6.00;4.93;;;13.90;97.40;;;;;;4970870;28;20249;-68
2021/03/31 04:10:27;;;;;;;8.73;5.57;;;13.90;97.40;;;;;;4968815;28;20228;-69
2021/03/31 04:12:56;;;;;;;9.82;6.20;;;13.80;97.50;;;;;;4978286;28;20668;-69
2021/03/31 04:15:23;;;;;;;6.70;5.70;;;13.80;97.50;;;;;;4971832;28;20201;-69
2021/03/31 04:17:50;;;;;;;7.25;6.03;;;13.80;97.50;;;;;;4987660;28;20205;-69
2021/03/31 04:20:19;;;;;;;9.00;5.90;;;13.80;97.50;;;;;;4975888;28;20653;-68
2021/03/31 04:22:47;;;;;;;7.28;6.10;;;13.80;97.60;;;;;;4987401;28;20201;-69
2021/03/31 04:25:15;;;;;;;7.60;5.60;;;13.80;97.60;;;;;;4976089;28;20225;-69
2021/03/31 04:27:43;;;;;;;8.30;5.53;;;13.70;97.60;;;;;;4971711;28;20198;-69
2021/03/31 04:30:12;;;;;;;6.88;5.20;;;13.70;97.60;;;;;;4980917;28;20211;-70
2021/03/31 04:32:40;;;;;;;9.88;6.28;;;13.70;97.70;;;;;;4982445;28;22504;-69
2021/03/31 04:35:07;;;;;;;6.32;4.82;;;13.70;97.70;;;;;;4990745;28;20286;-69
2021/03/31 04:37:34;;;;;;;9.85;5.00;;;13.70;97.70;;;;;;4973509;28;20267;-70
2021/03/31 04:40:00;;;;;;;7.45;6.15;;;13.70;97.70;;;;;;4990779;28;20197;-69
2021/03/31 04:42:26;;;;;;;7.75;5.63;;;13.70;97.80;;;;;;4978480;28;20197;-69
2021/03/31 04:44:53;;;;;;;9.20;6.13;;;13.70;97.80;;;;;;4971686;28;20212;-70
2021/03/31 04:47:19;;;;;;;9.10;6.07;;;13.60;97.80;;;;;;4987449;28;20204;-70
2021/03/31 04:49:45;;;;;;;7.18;5.18;;;13.60;97.80;;;;;;4973575;28;20293;-70
2021/03/31 04:52:12;;;;;;;10.88;7.03;;;13.60;97.90;;;;;;4985869;28;20212;-69
2021/03/31 04:54:38;;;;;;;9.63;5.75;;;13.60;97.90;;;;;;4971793;28;20349;-69
2021/03/31 04:57:04;;;;;;;8.00;6.03;;;13.60;97.90;;;;;;4971450;28;20202;-69
2021/03/31 04:59:31;;;;;;;8.07;5.88;;;13.50;97.80;;;;;;4971723;28;20209;-70
2021/03/31 05:01:58;;;;;;;7.00;5.80;;;13.50;97.90;;;;;;4982337;28;20215;-70
2021/03/31 05:04:24;;;;;;;9.48;5.65;;;13.50;97.90;;;;;;4987194;28;20201;-69
2021/03/31 05:06:50;;;;;;;8.00;5.85;;;13.50;97.90;;;;;;4979949;28;20216;-70
2021/03/31 05:09:16;;;;;;;7.10;5.78;;;13.50;98.00;;;;;;4974286;28;20642;-70
2021/03/31 05:11:43;;;;;;;8.05;6.68;;;13.50;98.00;;;;;;4971718;28;20197;-69
2021/03/31 05:14:09;;;;;;;7.03;5.55;;;13.50;98.00;;;;;;4978804;28;20684;-69
2021/03/31 05:16:35;;;;;;;11.30;6.20;;;13.40;98.00;;;;;;4990250;28;20197;-69
2021/03/31 05:19:02;;;;;;;7.53;5.15;;;13.40;98.00;;;;;;4977469;28;20674;-69
2021/03/31 05:21:28;;;;;;;9.35;6.20;;;13.40;98.00;;;;;;4987924;28;20201;-69
2021/03/31 05:23:54;;;;;;;9.45;6.10;;;13.40;98.00;;;;;;4990504;28;20565;-69
2021/03/31 05:26:21;;;;;;;9.20;6.63;;;13.40;98.00;;;;;;4988946;28;20197;-69
2021/03/31 05:28:47;;;;;;;7.32;6.15;;;13.40;98.00;;;;;;4986200;28;20518;-69
2021/03/31 05:31:13;;;;;;;10.15;6.40;;;13.40;98.00;;;;;;4972130;28;20190;-69
2021/03/31 05:33:39;;;;;;;7.70;6.57;;;13.40;98.00;;;;;;4970421;28;20229;-69
2021/03/31 05:36:07;;;;;;;7.15;5.80;;;13.30;98.00;;;;;;4978300;28;20193;-69
2021/03/31 05:38:33;;;;;;;5.90;5.15;;;13.30;98.00;;;;;;4989165;28;20197;-69
2021/03/31 05:40:59;;;;;;;11.98;7.68;;;13.30;98.10;;;;;;4984899;28;20537;-69
2021/03/31 05:43:26;;;;;;;9.45;6.75;;;13.30;98.10;;;;;;4973092;28;20296;-69
2021/03/31 05:45:53;;;;;;;8.73;6.50;;;13.30;98.10;;;;;;4990079;28;20223;-69
2021/03/31 05:48:20;;;;;;;7.63;6.00;;;13.30;98.10;;;;;;4984895;28;20292;-70
2021/03/31 05:50:46;;;;;;;5.72;5.20;;;13.30;98.10;;;;;;4976732;28;20202;-69
2021/03/31 05:53:13;;;;;;;8.05;6.60;;;13.20;98.20;;;;;;4971001;28;20217;-69
2021/03/31 05:55:39;;;;;;;6.80;5.70;;;13.20;98.20;;;;;;4971598;28;20565;-69
2021/03/31 05:58:06;;;;;;;10.20;6.22;;;13.30;98.20;;;;;;4987756;28;20588;-69
2021/03/31 06:00:33;;;;;;;6.32;5.53;;;13.30;98.20;;;;;;4982947;28;20200;-69
2021/03/31 06:03:02;;;;;;;6.90;5.45;;;13.40;97.90;;;;;;4987209;28;20200;-69
2021/03/31 06:05:30;;;;;;;10.05;6.13;;;13.50;97.60;;;;;;4980717;28;20206;-69
2021/03/31 06:07:56;;;;;;;6.80;5.55;;;13.60;97.20;;;;;;4976596;28;20197;-69
2021/03/31 06:10:25;;;;;;;13.27;7.18;;;13.70;96.70;;;;;;4970889;28;20210;-69
2021/03/31 06:12:55;;;;;;;9.15;5.45;;;13.80;96.20;;;;;;4970099;28;20217;-69
2021/03/31 06:15:27;;;;;;;10.65;5.97;;;14.00;95.80;;;;;;4970421;28;20200;-69
2021/03/31 06:17:55;;;;;;;7.70;6.00;;;14.10;95.40;;;;;;4986732;28;20216;-69
2021/03/31 06:20:40;;;;;;;12.30;6.90;;;14.30;94.90;;;;;;4985509;28;20193;-69
2021/03/31 06:23:24;;;;;;;8.80;6.43;;;14.40;94.40;;;;;;4976771;28;20236;-69
2021/03/31 06:25:56;;;;;;;7.45;5.80;;;14.60;94.10;;;;;;4979879;28;20633;-69
2021/03/31 06:28:33;;;;;;;9.02;6.68;;;14.80;93.60;;;;;;4973160;28;20189;-69
2021/03/31 06:31:11;;;;;;;7.60;6.07;;;14.90;93.10;;;;;;4970870;28;20205;-69
2021/03/31 06:33:38;;;;;;;6.78;5.68;;;15.10;92.70;;;;;;4975152;28;20652;-69
2021/03/31 06:36:06;;;;;;;8.25;6.40;;;15.20;92.30;;;;;;4987123;28;20196;-69
2021/03/31 06:38:35;;;;;;;8.73;5.85;;;15.30;92.00;;;;;;4987885;28;20192;-70
2021/03/31 06:41:12;;;;;;;6.20;4.88;;;15.40;91.60;;;;;;4987457;28;20212;-69
2021/03/31 06:43:46;;;;;;;10.02;6.38;;;15.50;91.30;;;;;;4970153;28;20193;-69
2021/03/31 06:46:19;;;;;;;7.50;5.70;;;15.70;91.10;;;;;;4968469;28;20205;-69
2021/03/31 06:48:48;;;;;;;6.30;5.43;;;15.80;90.80;;;;;;4982198;28;20238;-69
2021/03/31 06:51:25;;;;;;;6.47;4.57;;;15.80;90.40;;;;;;4969527;28;20232;-69
2021/03/31 06:53:51;;;;;;;8.02;5.35;;;15.90;90.10;;;;;;4978166;28;20224;-69
2021/03/31 06:56:26;;;;;;;7.35;4.75;;;16.10;89.70;;;;;;4974148;28;20193;-69
2021/03/31 06:58:57;;;;;;;4.97;4.03;;;16.10;89.30;;;;;;4979225;28;20679;-69
2021/03/31 07:01:25;;;;;;;9.93;5.50;;;16.20;88.90;;;;;;4973994;28;20194;-70
2021/03/31 07:03:52;;;;;;;5.63;4.43;;;16.30;88.40;;;;;;4969608;28;20206;-70
2021/03/31 07:06:19;;;;;;;5.45;4.78;;;16.40;88.00;;;;;;4987677;28;20239;-70
2021/03/31 07:08:46;;;;;;;5.13;4.15;;;16.50;87.30;;;;;;4988194;28;20197;-70
2021/03/31 07:11:14;;;;;;;4.75;4.32;;;16.60;87.10;;;;;;4981458;28;20232;-70
2021/03/31 07:13:42;;;;;;;5.28;4.45;;;16.70;86.30;;;;;;4969139;28;20251;-70
2021/03/31 07:16:09;;;;;;;5.15;4.30;;;16.70;86.20;;;;;;4969451;28;20206;-70
2021/03/31 07:18:35;;;;;;;6.45;4.53;;;16.80;85.90;;;;;;4982240;28;20201;-70
2021/03/31 07:21:02;;;;;;;7.93;3.88;;;16.90;85.70;;;;;;4987032;28;20200;-70
2021/03/31 07:23:28;;;;;;;4.80;4.00;;;16.90;85.30;;;;;;4988086;28;20224;-70
2021/03/31 07:25:55;;;;;;;5.00;4.05;;;17.00;85.20;;;;;;4988562;28;20208;-70
2021/03/31 07:28:25;;;;;;;5.07;3.55;;;17.10;84.70;;;;;;4972221;28;20589;-70
2021/03/31 07:30:53;;;;;;;5.88;3.67;;;17.20;84.40;;;;;;4980715;28;20201;-70
2021/03/31 07:33:23;;;;;;;5.68;3.85;;;17.30;84.50;;;;;;4975216;28;20214;-69
2021/03/31 07:35:50;;;;;;;5.22;3.97;;;17.30;83.50;;;;;;4984779;28;20201;-69
2021/03/31 07:38:18;;;;;;;4.28;3.47;;;17.40;83.30;;;;;;4968891;28;20254;-69
2021/03/31 07:40:45;;;;;;;4.30;3.60;;;17.50;82.90;;;;;;4970224;28;20229;-69
2021/03/31 07:43:14;;;;;;;4.68;4.10;;;17.50;82.50;;;;;;4973453;28;20567;-69
2021/03/31 07:45:42;;;;;;;4.15;3.50;;;17.60;82.30;;;;;;4968775;28;20201;-69
2021/03/31 07:48:10;;;;;;;4.00;3.30;;;17.70;82.10;;;;;;4969912;28;20201;-69
2021/03/31 07:50:37;;;;;;;3.60;2.95;;;17.80;81.80;;;;;;4976012;28;20627;-69
2021/03/31 07:53:04;;;;;;;5.22;3.95;;;17.80;81.20;;;;;;4970886;28;20229;-69
2021/03/31 07:55:36;;;;;;;3.97;3.58;;;17.90;81.20;;;;;;4987868;28;20696;-69
2021/03/31 07:58:25;;;;;;;5.25;3.58;;;17.90;80.80;;;;;;4980969;28;20189;-69
2021/03/31 08:01:01;;;;;;;4.45;3.20;;;18.00;80.00;;;;;;4970298;28;20190;-69
2021/03/31 08:03:30;;;;;;;5.80;4.18;;;18.00;80.00;;;;;;4969646;28;20622;-69
2021/03/31 08:06:02;;;;;;;5.05;4.13;;;18.10;79.90;;;;;;4972097;28;20201;-69
2021/03/31 08:08:29;;;;;;;3.75;3.40;;;18.20;79.60;;;;;;4973912;28;20203;-69
2021/03/31 08:10:56;;;;;;;6.00;4.30;;;18.20;79.30;;;;;;4970556;28;20217;-70
2021/03/31 08:13:27;;;;;;;5.40;4.35;;;18.20;79.10;;;;;;4969511;28;20217;-70
2021/03/31 08:15:53;;;;;;;4.63;3.90;;;18.30;78.80;;;;;;4972388;28;20571;-69
2021/03/31 08:18:20;;;;;;;5.22;4.00;;;18.30;78.90;;;;;;4980935;28;20208;-69
2021/03/31 08:20:48;;;;;;;6.50;4.72;;;18.40;78.50;;;;;;4978728;28;20255;-69
2021/03/31 08:23:14;;;;;;;5.43;4.30;;;18.40;77.90;;;;;;4977191;28;20220;-69
2021/03/31 08:25:41;;;;;;;5.35;3.95;;;18.50;77.80;;;;;;4973877;28;20212;-69
2021/03/31 08:28:09;;;;;;;7.60;3.97;;;18.50;77.80;;;;;;4976143;28;20664;-70
2021/03/31 08:30:37;;;;;;;5.13;4.63;;;18.60;77.40;;;;;;4978267;28;20205;-70
2021/03/31 08:33:05;;;;;;;5.28;4.50;;;18.60;77.40;;;;;;4977790;28;20220;-73
2021/03/31 08:35:32;;;;;;;6.20;5.60;;;18.70;76.90;;;;;;4978899;28;20209;-69
2021/03/31 08:38:00;;;;;;;6.20;4.90;;;18.60;76.90;;;;;;4971481;28;20206;-69
2021/03/31 08:40:31;;;;;;;6.43;4.82;;;18.70;76.30;;;;;;4984330;28;20205;-68
2021/03/31 08:43:00;;;;;;;7.53;4.70;;;18.70;76.50;;;;;;4969231;28;20246;-69
2021/03/31 08:45:33;;;;;;;5.10;3.85;;;18.80;76.20;;;;;;4979358;28;20517;-68
2021/03/31 08:47:59;;;;;;;5.70;3.70;;;18.80;76.50;;;;;;4981426;28;20205;-68
2021/03/31 08:50:29;;;;;;;5.20;4.63;;;18.90;76.70;;;;;;4969855;28;20215;-69
2021/03/31 08:53:02;;;;;;;6.55;4.68;;;18.90;76.30;;;;;;4986399;28;20236;-68
2021/03/31 08:55:34;;;;;;;6.22;5.45;;;18.90;77.20;;;;;;4974020;28;20240;-72
2021/03/31 08:58:05;;;;;;;7.82;5.45;;;18.90;76.00;;;;;;4976525;28;20349;-68
2021/03/31 09:00:31;;;;;;;13.88;5.22;;;18.90;76.00;;;;;;4978580;28;20208;-68
2021/03/31 09:03:04;;;;;;;6.20;4.60;;;18.90;76.20;;;;;;4979563;28;20533;-69
2021/03/31 09:05:30;;;;;;;7.70;5.07;;;18.90;76.00;;;;;;4979799;28;20205;-68
2021/03/31 09:08:00;;;;;;;10.23;5.60;;;18.90;76.10;;;;;;4971573;28;20209;-68
2021/03/31 09:10:27;;;;;;;6.40;5.40;;;19.00;75.80;;;;;;4985366;28;20704;-70
2021/03/31 09:12:54;;;;;;;9.25;6.25;;;19.00;75.50;;;;;;4972953;28;20260;-69
2021/03/31 09:15:20;;;;;;;6.57;5.53;;;19.00;75.30;;;;;;4977545;28;20202;-69
2021/03/31 09:17:48;;;;;;;8.18;4.60;;;19.00;74.70;;;;;;4986125;28;20267;-69
2021/03/31 09:20:19;;;;;;;9.20;4.50;;;19.00;75.00;;;;;;4981085;28;20206;-68
2021/03/31 09:22:45;;;;;;;7.47;5.30;;;19.00;75.30;;;;;;4980786;28;20223;-69
2021/03/31 09:25:14;;;;;;;7.75;5.47;;;19.00;75.00;;;;;;4980000;28;20205;-69
2021/03/31 09:27:41;;;;;;;8.27;5.55;;;19.00;75.20;;;;;;4981387;28;20205;-69
2021/03/31 09:30:11;;;;;;;16.58;11.23;;;19.00;75.00;;;;;;4980474;28;20208;-68
2021/03/31 09:32:40;;;;;;;9.48;5.65;;;19.00;74.80;;;;;;4974427;28;20244;-68
2021/03/31 09:35:08;;;;;;;9.43;6.32;;;19.00;75.00;;;;;;4972644;28;20212;-68
2021/03/31 09:37:39;;;;;;;6.32;5.03;;;19.00;74.30;;;;;;4979168;28;20207;-69
2021/03/31 09:40:06;;;;;;;8.27;5.35;;;19.00;74.50;;;;;;4975030;28;20210;-68
2021/03/31 09:42:35;;;;;;;9.15;5.90;;;19.00;74.50;;;;;;4973680;28;20209;-68
2021/03/31 09:45:04;;;;;;;5.88;4.72;;;18.90;74.30;;;;;;4973307;28;20889;-68
2021/03/31 09:47:34;;;;;;;9.23;7.75;;;18.90;74.40;;;;;;4970741;28;20216;-69
2021/03/31 09:50:00;;;;;;;8.73;5.78;;;19.00;73.70;;;;;;4976893;28;20636;-68
2021/03/31 09:52:27;;;;;;;7.60;5.90;;;19.00;74.90;;;;;;4975142;28;20675;-68
2021/03/31 09:54:54;;;;;;;20.98;6.80;;;18.90;74.40;;;;;;4976562;28;20222;-68
2021/03/31 09:57:25;;;;;;;8.85;6.55;;;18.90;74.20;;;;;;4978965;28;20242;-70
2021/03/31 09:59:53;;;;;;;10.27;5.80;;;18.90;74.20;;;;;;4979025;28;20204;-68
2021/03/31 10:02:21;;;;;;;10.75;7.45;;;18.90;74.40;;;;;;4971798;28;20198;-68
2021/03/31 10:04:48;;;;;;;8.65;5.85;;;18.90;73.90;;;;;;4982670;28;20253;-68
2021/03/31 10:07:16;;;;;;;11.07;5.93;;;18.90;74.30;;;;;;4979401;28;20197;-69
2021/03/31 10:09:44;;;;;;;8.50;5.15;;;18.90;74.20;;;;;;4977676;28;20227;-69
2021/03/31 10:12:12;;;;;;;7.75;6.68;;;18.90;74.30;;;;;;4982428;28;20201;-69
2021/03/31 10:14:47;;;;;;;6.45;5.65;;;18.90;73.40;;;;;;4983242;28;20221;-69
2021/03/31 10:17:16;;;;;;;8.82;6.60;;;18.90;73.20;;;;;;4977698;28;20209;-68
2021/03/31 10:19:43;;;;;;;7.75;5.63;;;18.90;73.90;;;;;;4976353;28;20244;-68
2021/03/31 10:22:10;;;;;;;6.88;5.47;;;18.90;73.20;;;;;;4978916;28;20225;-68
2021/03/31 10:24:39;;;;;;;8.63;6.43;;;18.90;72.30;;;;;;4977418;28;20229;-68
2021/03/31 10:27:06;;;;;;;7.13;5.50;;;18.90;72.20;;;;;;4980957;28;20233;-68
2021/03/31 10:29:33;;;;;;;6.72;5.60;;;18.90;71.60;;;;;;4983100;28;20201;-68
2021/03/31 10:32:00;;;;;;;33.35;10.55;;;18.80;71.90;;;;;;4978682;28;20595;-68
2021/03/31 10:34:39;;;;;;;7.78;6.00;;;18.80;71.90;;;;;;4976978;28;20221;-68
2021/03/31 10:37:11;;;;;;;7.93;5.82;;;18.80;72.50;;;;;;4981537;28;20200;-68
2021/03/31 10:40:04;;;;;;;7.10;5.88;;;18.80;72.10;;;;;;4978297;28;20241;-69
2021/03/31 10:48:53;;;;;;;10.35;6.13;;;18.80;72.20;;;;;;4976852;28;20216;-69
2021/03/31 10:51:33;;;;;;;8.18;5.80;;;18.80;72.00;;;;;;4976622;28;20232;-69
2021/03/31 10:54:05;;;;;;;10.80;6.90;;;18.80;72.80;;;;;;4973850;28;20221;-68
2021/03/31 10:56:35;;;;;;;8.23;5.43;;;18.80;71.70;;;;;;4971055;28;20622;-68
2021/03/31 10:59:08;;;;;;;10.35;5.53;;;18.90;71.50;;;;;;4980246;28;20308;-68
2021/03/31 11:01:35;;;;;;;9.88;5.80;;;18.80;71.10;;;;;;4975732;28;20221;-68
2021/03/31 11:04:05;;;;;;;8.20;5.15;;;18.90;71.80;;;;;;4975102;28;20200;-70
2021/03/31 11:06:51;;;;;;;7.78;4.65;;;18.90;71.10;;;;;;4974735;28;20198;-68
2021/03/31 11:10:14;;;;;;;7.95;5.80;;;18.90;71.70;;;;;;4975856;28;20198;-68
2021/03/31 11:15:47;;;;;;;5.97;5.38;;;18.90;71.00;;;;;;4978575;28;20803;-69
2021/03/31 11:18:21;;;;;;;6.60;4.57;;;18.90;70.50;;;;;;4972590;28;20198;-68
2021/03/31 11:26:21;;;;;;;7.57;4.88;;;18.90;70.10;;;;;;4972927;28;20223;-70
2021/03/31 11:28:49;;;;;;;8.43;4.70;;;18.90;70.40;;;;;;4972812;28;20198;-70
2021/03/31 11:31:33;;;;;;;5.18;4.60;;;18.90;69.60;;;;;;4971389;28;20474;-69
2021/03/31 11:34:07;;;;;;;5.38;4.32;;;18.90;68.60;;;;;;4972368;28;20301;-70
2021/03/31 11:36:36;;;;;;;5.00;4.00;;;19.00;69.20;;;;;;4968633;28;20198;-70
2021/03/31 11:39:06;;;;;;;4.95;4.18;;;18.90;68.60;;;;;;4970304;28;20211;-70
2021/03/31 11:41:39;;;;;;;6.82;3.95;;;19.00;69.50;;;;;;4976163;28;20213;-70
2021/03/31 11:44:07;;;;;;;6.18;4.10;;;19.00;69.50;;;;;;4977763;28;20209;-69
2021/03/31 11:46:34;;;;;;;5.38;4.65;;;19.00;69.00;;;;;;4976542;28;20201;-70
2021/03/31 11:49:01;;;;;;;9.00;4.70;;;19.00;68.20;;;;;;4979970;28;20205;-69
2021/03/31 11:51:35;;;;;;;5.47;3.83;;;19.00;68.70;;;;;;4987791;28;20209;-69
2021/03/31 11:54:02;;;;;;;6.90;4.55;;;19.00;68.80;;;;;;4986211;28;20938;-70
2021/03/31 11:59:51;;;;;;;4.30;3.35;;;19.10;68.20;;;;;;4968092;28;20662;-69
2021/03/31 12:02:20;;;;;;;4.13;3.70;;;19.10;68.50;;;;;;4986848;28;20589;-69
2021/03/31 12:04:52;;;;;;;4.65;3.55;;;19.10;68.20;;;;;;4986540;28;20548;-68
2021/03/31 12:07:19;;;;;;;6.30;4.18;;;19.10;68.50;;;;;;4984503;28;20225;-69
2021/03/31 12:09:47;;;;;;;5.18;3.55;;;19.10;67.00;;;;;;4970915;28;20710;-68
2021/03/31 12:12:26;;;;;;;4.03;3.47;;;19.10;67.40;;;;;;4978797;28;20201;-69
2021/03/31 12:14:55;;;;;;;6.60;3.42;;;19.10;68.00;;;;;;4967763;28;20228;-69
2021/03/31 12:17:37;;;;;;;5.10;3.30;;;19.10;67.90;;;;;;4968348;28;20193;-69
2021/03/31 12:20:21;;;;;;;6.25;3.28;;;19.10;68.10;;;;;;4979550;28;20197;-69
2021/03/31 12:23:15;;;;;;;4.43;3.75;;;19.10;67.80;;;;;;4980924;28;20209;-69
2021/03/31 12:25:44;;;;;;;4.65;3.65;;;19.10;67.80;;;;;;4974085;28;20196;-69
2021/03/31 12:28:24;;;;;;;4.50;3.30;;;19.10;67.90;;;;;;4985031;28;20235;-69
2021/03/31 12:30:52;;;;;;;8.32;4.13;;;19.10;67.20;;;;;;4974688;28;20205;-69
2021/03/31 12:33:21;;;;;;;4.40;3.28;;;19.10;67.10;;;;;;4967772;28;20290;-69
2021/03/31 12:35:49;;;;;;;5.30;4.00;;;19.10;67.20;;;;;;4971980;28;20198;-69
2021/03/31 12:38:20;;;;;;;5.38;3.13;;;19.10;67.40;;;;;;4967805;28;20955;-69
2021/03/31 12:40:46;;;;;;;5.40;2.95;;;19.10;66.90;;;;;;4971952;28;20217;-69
2021/03/31 12:43:13;;;;;;;5.05;3.25;;;19.10;67.00;;;;;;4969635;28;20254;-70
2021/03/31 12:45:41;;;;;;;6.80;4.38;;;19.10;67.00;;;;;;4975002;28;20207;-70
2021/03/31 12:48:09;;;;;;;6.00;3.70;;;19.10;66.90;;;;;;4971138;28;20206;-70
2021/03/31 12:50:36;;;;;;;3.60;3.30;;;19.20;67.50;;;;;;4971001;28;20236;-70
2021/03/31 12:53:05;;;;;;;6.38;3.13;;;19.10;66.90;;;;;;4971238;28;20699;-69
2021/03/31 12:55:44;;;;;;;3.53;3.13;;;19.20;66.80;;;;;;4978114;28;20201;-69
2021/03/31 12:58:28;;;;;;;4.55;3.00;;;19.20;66.80;;;;;;4984437;28;20197;-69
2021/03/31 13:04:12;;;;;;;3.42;3.00;;;19.20;66.00;;;;;;4976590;28;20331;-70
2021/03/31 13:06:45;;;;;;;5.78;3.85;;;19.20;66.10;;;;;;4975207;28;20339;-69
2021/03/31 13:09:14;;;;;;;6.90;3.33;;;19.20;65.70;;;;;;4987641;28;20204;-70
2021/03/31 13:11:40;;;;;;;6.78;3.90;;;19.20;65.40;;;;;;4974810;28;20341;-69
2021/03/31 13:14:39;;;;;;;3.10;2.58;;;19.30;65.50;;;;;;4977861;28;20217;-70
2021/03/31 13:17:07;;;;;;;3.70;2.63;;;19.30;66.30;;;;;;4976732;28;20216;-69
2021/03/31 13:22:46;;;;;;;4.60;3.13;;;19.30;65.60;;;;;;4988849;28;20200;-69